Time;durP1;ratioP1;P1;durP2;ratioP2;P2;SDS_P1;SDS_P2;PMS_P1;PMS_P2;Temp;Humidity;BMP_temperature;BMP_pressure;BME280_temperature;BME280_humidity;BME280_pressure;Samples;Min_cycle;Max_cycle;Signal;HPM_P1;HPM_P2
2023/09/13 00:00:09;;;;;;;11.23;3.90;;;21.20;99.90;;;;;;5033496;28;20446;-85
2023/09/13 00:02:40;;;;;;;3.57;2.70;;;21.20;99.90;;;;;;5033594;28;20849;-85
2023/09/13 00:05:08;;;;;;;4.17;2.50;;;21.00;99.90;;;;;;5033646;28;20458;-85
2023/09/13 00:07:35;;;;;;;2.30;2.20;;;20.80;99.90;;;;;;5033487;28;20438;-85
2023/09/13 00:10:01;;;;;;;4.03;2.70;;;20.70;99.90;;;;;;5033386;28;20456;-85
2023/09/13 00:12:28;;;;;;;9.03;2.87;;;20.50;99.90;;;;;;5033401;28;20481;-84
2023/09/13 00:14:55;;;;;;;4.53;3.03;;;20.40;99.90;;;;;;5033354;28;20465;-85
2023/09/13 00:17:23;;;;;;;4.43;2.80;;;20.20;99.90;;;;;;5033862;28;20481;-85
2023/09/13 00:19:51;;;;;;;10.53;3.30;;;20.20;99.90;;;;;;5033373;28;20451;-85
2023/09/13 00:22:18;;;;;;;6.23;3.37;;;20.00;99.90;;;;;;5033499;28;20809;-85
2023/09/13 00:24:46;;;;;;;4.50;2.53;;;19.90;99.90;;;;;;5033065;28;20442;-86
2023/09/13 00:27:13;;;;;;;3.83;2.57;;;19.70;99.90;;;;;;5033063;28;20475;-86
2023/09/13 00:29:40;;;;;;;4.43;2.70;;;19.60;99.90;;;;;;5032863;28;20443;-85
2023/09/13 00:32:06;;;;;;;5.23;2.97;;;19.50;99.90;;;;;;5033495;28;20458;-85
2023/09/13 00:34:33;;;;;;;4.73;2.33;;;19.50;99.90;;;;;;5033119;28;20812;-86
2023/09/13 00:37:01;;;;;;;2.93;2.30;;;19.40;99.90;;;;;;5033129;28;20492;-86
2023/09/13 00:39:28;;;;;;;2.77;2.33;;;19.30;99.90;;;;;;5033081;28;20442;-86
2023/09/13 00:41:57;;;;;;;2.23;2.03;;;19.20;99.90;;;;;;5033216;28;20977;-86
2023/09/13 00:44:24;;;;;;;3.00;2.60;;;19.10;99.90;;;;;;5033233;28;20477;-87
2023/09/13 00:46:51;;;;;;;4.63;2.60;;;19.10;99.90;;;;;;5033232;28;20463;-86
2023/09/13 00:49:17;;;;;;;4.13;2.37;;;19.00;99.90;;;;;;5033205;28;20438;-87
2023/09/13 00:51:44;;;;;;;3.10;2.10;;;19.00;99.90;;;;;;5032919;28;20450;-86
2023/09/13 00:54:13;;;;;;;4.40;2.57;;;19.00;99.90;;;;;;5033335;28;20450;-87
2023/09/13 00:56:41;;;;;;;6.57;3.00;;;18.90;99.90;;;;;;5033132;28;20517;-86
2023/09/13 00:59:09;;;;;;;5.73;2.70;;;18.80;99.90;;;;;;5033119;28;20442;-87
2023/09/13 01:01:36;;;;;;;7.03;2.80;;;18.80;99.90;;;;;;5035168;28;20553;-86
2023/09/13 01:04:04;;;;;;;5.10;2.40;;;18.90;99.90;;;;;;5036926;28;20449;-86
2023/09/13 01:06:31;;;;;;;4.37;2.43;;;18.80;99.90;;;;;;5038478;28;20545;-86
2023/09/13 01:08:58;;;;;;;5.30;2.63;;;18.80;99.90;;;;;;5044055;28;20462;-86
2023/09/13 01:11:27;;;;;;;2.70;2.50;;;18.80;99.90;;;;;;5036951;28;20935;-86
2023/09/13 01:13:54;;;;;;;3.63;2.50;;;18.80;99.90;;;;;;5036953;28;20442;-86
2023/09/13 01:16:26;;;;;;;2.50;2.27;;;18.80;99.90;;;;;;5036505;28;20469;-86
2023/09/13 01:18:59;;;;;;;8.60;2.30;;;18.80;99.90;;;;;;5036367;28;20442;-86
2023/09/13 01:21:41;;;;;;;2.73;2.50;;;18.80;99.90;;;;;;5036410;28;20470;-86
2023/09/13 01:24:32;;;;;;;3.47;2.10;;;18.70;99.90;;;;;;5036600;28;20446;-86
2023/09/13 01:27:21;;;;;;;6.30;2.90;;;18.70;99.90;;;;;;5035960;28;20470;-85
2023/09/13 01:29:52;;;;;;;3.23;2.93;;;18.60;99.90;;;;;;5036365;28;20431;-85
2023/09/13 01:32:19;;;;;;;3.40;2.30;;;18.60;99.90;;;;;;5036329;28;20781;-86
2023/09/13 01:34:45;;;;;;;2.63;2.03;;;18.60;99.90;;;;;;5036170;28;20478;-86
2023/09/13 01:37:12;;;;;;;3.37;2.57;;;18.60;99.90;;;;;;5035840;28;20474;-85
2023/09/13 01:39:39;;;;;;;5.80;3.20;;;18.50;99.90;;;;;;5036274;28;20541;-85
2023/09/13 01:42:10;;;;;;;4.90;2.60;;;18.40;99.90;;;;;;5035804;28;20458;-85
2023/09/13 01:44:40;;;;;;;3.23;2.40;;;18.40;99.90;;;;;;5036117;28;20454;-85
2023/09/13 01:47:09;;;;;;;5.87;2.67;;;18.30;99.90;;;;;;5036336;28;20517;-85
2023/09/13 01:49:36;;;;;;;4.00;2.57;;;18.30;99.90;;;;;;5035718;28;20451;-85
2023/09/13 01:52:05;;;;;;;4.70;2.80;;;18.40;99.90;;;;;;5035726;28;20453;-86
2023/09/13 01:54:34;;;;;;;2.70;2.20;;;18.40;99.90;;;;;;5035931;28;20443;-85
2023/09/13 01:57:00;;;;;;;9.20;2.27;;;18.40;99.90;;;;;;5035589;28;20524;-86
2023/09/13 01:59:27;;;;;;;3.93;2.83;;;18.40;99.90;;;;;;5036045;28;20454;-85
2023/09/13 02:01:54;;;;;;;3.90;2.20;;;18.50;99.90;;;;;;5035662;28;20435;-85
2023/09/13 02:04:22;;;;;;;3.50;2.23;;;19.10;99.90;;;;;;5035808;28;20443;-85
2023/09/13 02:06:49;;;;;;;4.27;2.30;;;18.50;99.90;;;;;;5035407;28;20459;-85
2023/09/13 02:09:16;;;;;;;5.13;2.03;;;18.40;99.90;;;;;;5035808;28;20439;-86
2023/09/13 02:11:43;;;;;;;3.23;2.37;;;18.40;99.90;;;;;;5035554;28;20477;-86
2023/09/13 02:14:10;;;;;;;2.10;1.90;;;18.30;99.90;;;;;;5035488;28;20473;-85
2023/09/13 02:16:36;;;;;;;3.60;2.40;;;18.30;99.90;;;;;;5034980;28;21010;-86
2023/09/13 02:19:04;;;;;;;7.03;2.63;;;18.30;99.90;;;;;;5035369;28;20461;-86
2023/09/13 02:21:32;;;;;;;2.77;2.57;;;18.40;99.90;;;;;;5035367;28;20463;-85
2023/09/13 02:23:58;;;;;;;3.00;1.83;;;18.40;99.90;;;;;;5035334;28;20449;-86
2023/09/13 02:26:26;;;;;;;2.63;2.17;;;18.30;99.90;;;;;;5034957;28;20858;-85
2023/09/13 02:28:53;;;;;;;5.27;2.73;;;18.40;99.90;;;;;;5035050;28;20443;-86
2023/09/13 02:31:23;;;;;;;4.00;2.20;;;18.30;99.90;;;;;;5034953;28;20441;-86
2023/09/13 02:33:50;;;;;;;2.33;1.57;;;18.40;99.90;;;;;;5035024;28;20454;-85
2023/09/13 02:36:17;;;;;;;4.00;2.60;;;18.40;99.90;;;;;;5035235;28;20470;-85
2023/09/13 02:38:45;;;;;;;5.50;2.90;;;18.50;99.90;;;;;;5034942;28;20495;-85
2023/09/13 02:41:12;;;;;;;5.90;1.83;;;18.40;99.90;;;;;;5034939;28;20454;-85
2023/09/13 02:43:40;;;;;;;3.33;2.23;;;18.40;99.90;;;;;;5034893;28;20443;-85
2023/09/13 02:46:07;;;;;;;3.50;2.40;;;18.40;99.90;;;;;;5034768;28;20462;-85
2023/09/13 02:48:34;;;;;;;5.43;2.53;;;18.50;99.90;;;;;;5034816;28;20447;-85
2023/09/13 02:51:01;;;;;;;2.60;2.00;;;18.50;99.90;;;;;;5034729;28;20443;-85
2023/09/13 02:53:27;;;;;;;2.20;2.00;;;18.60;99.90;;;;;;5034691;28;20529;-85
2023/09/13 02:56:04;;;;;;;2.30;1.90;;;18.50;99.90;;;;;;5034612;28;20826;-85
2023/09/13 02:58:30;;;;;;;3.67;1.90;;;18.50;99.90;;;;;;5034412;28;20462;-85
2023/09/13 03:00:58;;;;;;;5.03;2.60;;;18.50;99.90;;;;;;5034311;28;20443;-85
2023/09/13 03:03:25;;;;;;;3.13;1.80;;;18.50;99.90;;;;;;5034238;28;20520;-84
2023/09/13 03:05:51;;;;;;;3.20;1.53;;;18.40;99.90;;;;;;5034128;28;20451;-85
2023/09/13 03:08:18;;;;;;;4.43;2.53;;;18.40;99.90;;;;;;5034447;28;20439;-85
2023/09/13 03:10:45;;;;;;;3.47;2.90;;;18.60;99.90;;;;;;5034367;28;20451;-84
2023/09/13 03:13:13;;;;;;;2.03;1.80;;;18.50;99.90;;;;;;5034377;28;20443;-84
2023/09/13 03:15:40;;;;;;;3.40;1.87;;;19.10;99.90;;;;;;5034187;28;20480;-84
2023/09/13 03:18:07;;;;;;;3.70;2.37;;;18.50;99.90;;;;;;5034095;28;20481;-85
2023/09/13 03:20:39;;;;;;;4.57;2.40;;;18.50;99.90;;;;;;5033867;28;20453;-84
2023/09/13 03:23:06;;;;;;;2.43;2.20;;;18.50;99.90;;;;;;5034166;28;20427;-85
2023/09/13 03:25:33;;;;;;;5.10;2.47;;;18.40;99.90;;;;;;5033491;28;20537;-84
2023/09/13 03:28:00;;;;;;;2.77;2.50;;;18.50;99.90;;;;;;5033806;28;20422;-84
2023/09/13 03:30:28;;;;;;;2.83;2.20;;;18.50;99.90;;;;;;5033895;28;20446;-84
2023/09/13 03:32:55;;;;;;;2.10;1.73;;;18.50;99.90;;;;;;5034038;28;20447;-84
2023/09/13 03:35:22;;;;;;;2.80;2.60;;;18.60;99.90;;;;;;5033871;28;20463;-85
2023/09/13 03:37:48;;;;;;;3.23;1.90;;;18.60;99.90;;;;;;5033584;28;20474;-85
2023/09/13 03:40:15;;;;;;;1.83;1.70;;;18.60;99.90;;;;;;5033575;28;20948;-85
2023/09/13 03:42:42;;;;;;;2.23;1.83;;;18.50;99.90;;;;;;5033792;28;20447;-85
2023/09/13 03:45:09;;;;;;;2.87;2.00;;;18.50;99.90;;;;;;5033378;28;20971;-84
2023/09/13 03:47:37;;;;;;;3.63;2.53;;;18.50;99.90;;;;;;5033444;28;20443;-84
2023/09/13 03:50:05;;;;;;;5.50;2.50;;;18.50;99.90;;;;;;5033716;28;20431;-85
2023/09/13 03:52:31;;;;;;;3.03;2.30;;;18.50;99.90;;;;;;5033612;28;20446;-84
2023/09/13 03:54:58;;;;;;;4.80;2.50;;;18.50;99.90;;;;;;5033372;28;20455;-84
2023/09/13 03:57:25;;;;;;;3.07;2.00;;;18.60;99.90;;;;;;5033427;28;20493;-84
2023/09/13 03:59:52;;;;;;;3.73;3.40;;;18.60;99.90;;;;;;5033554;28;20434;-84
2023/09/13 04:02:18;;;;;;;10.33;2.50;;;18.60;99.90;;;;;;5033458;28;20451;-84
2023/09/13 04:04:46;;;;;;;5.33;3.07;;;18.60;99.90;;;;;;5033393;28;20454;-84
2023/09/13 04:07:13;;;;;;;1.93;1.80;;;18.50;99.90;;;;;;5033937;28;20446;-85
2023/09/13 04:09:40;;;;;;;2.47;2.00;;;18.60;99.90;;;;;;5033382;28;20844;-84
2023/09/13 04:12:07;;;;;;;2.63;2.20;;;18.50;99.90;;;;;;5033356;28;20823;-85
2023/09/13 04:14:34;;;;;;;3.90;2.13;;;18.50;99.90;;;;;;5033035;28;20951;-84
2023/09/13 04:17:00;;;;;;;4.77;3.00;;;18.80;99.90;;;;;;5033208;28;20447;-84
2023/09/13 04:19:27;;;;;;;2.40;1.80;;;18.70;99.90;;;;;;5033202;28;20491;-84
2023/09/13 04:21:55;;;;;;;3.33;3.03;;;18.60;99.90;;;;;;5033238;28;20447;-84
2023/09/13 04:24:22;;;;;;;3.83;2.10;;;18.50;99.90;;;;;;5033274;28;20454;-84
2023/09/13 04:26:49;;;;;;;3.20;2.33;;;18.50;99.90;;;;;;5032695;28;21006;-84
2023/09/13 04:29:15;;;;;;;3.87;2.13;;;18.50;99.90;;;;;;5032955;28;20449;-84
2023/09/13 04:31:42;;;;;;;1.57;1.47;;;18.50;99.90;;;;;;5033163;28;20442;-84
2023/09/13 04:34:09;;;;;;;2.37;2.03;;;18.40;99.90;;;;;;5032868;28;20808;-84
2023/09/13 04:36:36;;;;;;;4.20;2.70;;;18.50;99.90;;;;;;5034804;28;20979;-84
2023/09/13 04:39:04;;;;;;;3.93;2.13;;;19.00;99.90;;;;;;5036889;28;20478;-84
2023/09/13 04:41:31;;;;;;;4.03;2.30;;;18.40;99.90;;;;;;5036904;28;20443;-84
2023/09/13 04:43:58;;;;;;;2.80;2.60;;;18.30;99.90;;;;;;5036846;28;20442;-84
2023/09/13 04:46:24;;;;;;;2.73;2.20;;;18.40;99.90;;;;;;5036927;28;20471;-84
2023/09/13 04:48:51;;;;;;;2.00;1.63;;;18.40;99.90;;;;;;5036831;28;20465;-84
2023/09/13 04:51:18;;;;;;;5.53;2.50;;;18.50;99.90;;;;;;5036580;28;20453;-84
2023/09/13 04:53:45;;;;;;;3.60;2.47;;;18.40;99.90;;;;;;5036894;28;20446;-84
2023/09/13 04:56:13;;;;;;;3.47;2.20;;;18.50;99.90;;;;;;5036523;28;20461;-84
2023/09/13 04:58:39;;;;;;;5.30;2.17;;;18.50;99.90;;;;;;5036697;28;20474;-84
2023/09/13 05:01:06;;;;;;;5.10;3.07;;;18.50;99.90;;;;;;5036770;28;20455;-84
2023/09/13 05:03:33;;;;;;;4.13;2.40;;;18.50;99.90;;;;;;5036524;28;20493;-84
2023/09/13 05:06:00;;;;;;;3.50;2.30;;;18.50;99.90;;;;;;5036330;28;20974;-84
2023/09/13 05:08:26;;;;;;;3.53;2.17;;;18.50;99.90;;;;;;5036320;28;20951;-84
2023/09/13 05:10:55;;;;;;;5.40;2.40;;;18.50;99.90;;;;;;5036625;28;20450;-84
2023/09/13 05:13:23;;;;;;;3.50;2.53;;;18.50;99.90;;;;;;5036227;28;20504;-84
2023/09/13 05:15:50;;;;;;;3.20;2.47;;;18.50;99.90;;;;;;5036150;28;20470;-83
2023/09/13 05:18:16;;;;;;;2.50;1.97;;;18.50;99.90;;;;;;5036395;28;20482;-83
2023/09/13 05:20:43;;;;;;;4.27;2.50;;;18.50;99.90;;;;;;5036680;28;20457;-84
2023/09/13 05:23:10;;;;;;;4.40;2.73;;;18.50;99.90;;;;;;5036082;28;20935;-83
2023/09/13 05:25:43;;;;;;;2.70;2.47;;;18.50;99.90;;;;;;5035795;28;20493;-84
2023/09/13 05:28:10;;;;;;;3.50;2.67;;;18.50;99.90;;;;;;5034775;28;20425;-83
2023/09/13 05:30:39;;;;;;;2.97;2.37;;;18.50;99.90;;;;;;5034943;28;20436;-84
2023/09/13 05:33:06;;;;;;;2.27;2.00;;;18.60;99.90;;;;;;5034986;28;20473;-83
2023/09/13 05:35:33;;;;;;;3.60;2.40;;;18.50;99.90;;;;;;5034903;28;20985;-84
2023/09/13 05:38:00;;;;;;;4.30;2.33;;;18.60;99.90;;;;;;5034855;28;20504;-83
2023/09/13 05:40:28;;;;;;;2.10;2.00;;;18.60;99.90;;;;;;5035323;28;20461;-83
2023/09/13 05:42:55;;;;;;;3.60;2.50;;;18.70;99.90;;;;;;5035255;28;20842;-83
2023/09/13 05:45:23;;;;;;;4.77;3.53;;;18.70;99.90;;;;;;5034761;28;20489;-83
2023/09/13 05:47:51;;;;;;;3.50;2.77;;;18.70;99.90;;;;;;5034324;28;20533;-83
2023/09/13 05:50:18;;;;;;;5.73;2.83;;;18.60;99.90;;;;;;5034484;28;20453;-83
2023/09/13 05:52:44;;;;;;;5.60;2.90;;;18.70;99.90;;;;;;5034667;28;20450;-83
2023/09/13 05:55:11;;;;;;;2.80;2.60;;;18.60;99.90;;;;;;5034585;28;20462;-83
2023/09/13 05:57:38;;;;;;;4.80;2.60;;;18.70;99.90;;;;;;5034631;28;20450;-83
2023/09/13 06:00:07;;;;;;;3.33;1.90;;;18.70;99.90;;;;;;5034514;28;20494;-83
2023/09/13 06:02:34;;;;;;;3.70;2.27;;;18.60;99.90;;;;;;5034577;28;20450;-83
2023/09/13 06:05:03;;;;;;;4.13;2.80;;;18.60;99.90;;;;;;5034159;28;20466;-83
2023/09/13 06:07:30;;;;;;;5.90;2.97;;;18.60;99.90;;;;;;5034499;28;20838;-83
2023/09/13 06:09:58;;;;;;;5.80;2.80;;;18.60;99.90;;;;;;5034120;28;20443;-83
2023/09/13 06:12:25;;;;;;;6.30;2.63;;;18.50;99.90;;;;;;5034121;28;21018;-83
2023/09/13 06:14:55;;;;;;;3.47;1.97;;;18.70;99.90;;;;;;5034151;28;20474;-83
2023/09/13 06:17:22;;;;;;;3.73;2.97;;;18.70;99.90;;;;;;5033980;28;20771;-83
2023/09/13 06:19:49;;;;;;;3.17;2.50;;;18.70;99.90;;;;;;5033902;28;20486;-83
2023/09/13 06:22:18;;;;;;;4.30;2.70;;;18.70;99.90;;;;;;5033998;28;20446;-83
2023/09/13 06:24:45;;;;;;;2.67;2.47;;;18.70;99.90;;;;;;5034114;28;20450;-83
2023/09/13 06:27:11;;;;;;;4.30;2.43;;;18.70;99.90;;;;;;4997912;28;1053804;-83
2023/09/13 06:29:38;;;;;;;4.37;2.57;;;18.70;99.90;;;;;;5035148;28;20204;-83
2023/09/13 06:32:06;;;;;;;3.10;2.60;;;18.70;99.90;;;;;;5035330;28;20462;-83
2023/09/13 06:34:33;;;;;;;2.63;2.00;;;18.80;99.90;;;;;;5034976;28;20533;-84
2023/09/13 06:37:00;;;;;;;4.90;3.10;;;18.80;99.90;;;;;;5034987;28;20446;-83
2023/09/13 06:39:28;;;;;;;4.50;2.67;;;18.90;99.90;;;;;;5034856;28;20486;-83
2023/09/13 06:41:55;;;;;;;4.73;3.03;;;19.00;99.90;;;;;;5034908;28;20544;-83
2023/09/13 06:44:21;;;;;;;3.80;2.27;;;19.20;99.90;;;;;;5034842;28;20443;-83
2023/09/13 06:46:48;;;;;;;3.30;2.47;;;19.30;99.90;;;;;;5035195;28;20818;-83
2023/09/13 06:49:15;;;;;;;5.87;4.03;;;19.50;99.90;;;;;;5034738;28;20450;-82
2023/09/13 06:51:41;;;;;;;4.70;3.13;;;19.50;99.90;;;;;;5034658;28;20447;-83
2023/09/13 06:54:08;;;;;;;4.87;3.43;;;19.50;99.90;;;;;;5034651;28;20455;-83
2023/09/13 06:56:36;;;;;;;4.47;2.63;;;19.50;99.90;;;;;;5034339;28;20832;-83
2023/09/13 06:59:03;;;;;;;2.47;2.27;;;19.50;99.90;;;;;;5033690;28;20489;-83
2023/09/13 07:01:30;;;;;;;2.73;2.30;;;19.50;99.90;;;;;;5034230;28;20450;-83
2023/09/13 07:03:57;;;;;;;3.17;2.20;;;19.50;99.90;;;;;;5034501;28;20453;-83
2023/09/13 07:06:24;;;;;;;3.43;2.40;;;19.50;99.90;;;;;;5034395;28;20459;-82
2023/09/13 07:08:51;;;;;;;3.23;2.53;;;19.50;99.90;;;;;;5034586;28;20810;-83
2023/09/13 07:11:18;;;;;;;2.70;2.10;;;19.50;99.90;;;;;;5034111;28;20455;-83
2023/09/13 07:13:46;;;;;;;1.93;1.80;;;19.50;99.90;;;;;;5033979;28;20948;-83
2023/09/13 07:16:12;;;;;;;3.80;2.83;;;19.40;99.90;;;;;;5033870;28;20998;-83
2023/09/13 07:18:39;;;;;;;3.20;2.57;;;19.40;99.90;;;;;;5034115;28;20486;-82
2023/09/13 07:21:06;;;;;;;3.40;2.10;;;19.40;99.90;;;;;;5034145;28;20450;-83
2023/09/13 07:23:33;;;;;;;3.13;2.57;;;19.40;99.90;;;;;;5034133;28;20445;-83
2023/09/13 07:26:00;;;;;;;2.87;2.00;;;19.40;99.90;;;;;;5033468;28;20493;-83
2023/09/13 07:28:27;;;;;;;3.17;2.33;;;19.40;99.90;;;;;;5033691;28;21005;-83
2023/09/13 07:30:55;;;;;;;2.00;1.80;;;19.40;99.90;;;;;;5033967;28;20450;-83
2023/09/13 07:33:22;;;;;;;2.63;2.43;;;19.40;99.90;;;;;;5033929;28;20442;-83
2023/09/13 07:35:48;;;;;;;2.50;2.13;;;19.40;99.90;;;;;;5033581;28;20489;-83
2023/09/13 07:38:15;;;;;;;3.83;2.10;;;19.40;99.90;;;;;;5033567;28;20927;-82
2023/09/13 07:40:42;;;;;;;5.33;2.20;;;19.40;99.90;;;;;;5033499;28;20446;-83
2023/09/13 07:43:09;;;;;;;5.07;2.80;;;19.50;99.90;;;;;;5033751;28;20439;-82
2023/09/13 07:45:36;;;;;;;2.20;1.93;;;19.40;99.90;;;;;;5033614;28;20467;-82
2023/09/13 07:48:05;;;;;;;3.00;2.27;;;19.30;99.90;;;;;;5033693;28;20455;-82
2023/09/13 07:50:32;;;;;;;2.90;2.23;;;19.40;99.90;;;;;;5033611;28;20446;-82
2023/09/13 07:52:59;;;;;;;4.37;2.77;;;19.40;99.90;;;;;;5033603;28;20446;-82
2023/09/13 07:55:26;;;;;;;1.90;1.70;;;19.40;99.90;;;;;;5033516;28;20467;-82
2023/09/13 07:57:53;;;;;;;2.93;2.10;;;19.40;99.90;;;;;;5033556;28;20457;-82
2023/09/13 08:00:20;;;;;;;3.07;2.47;;;19.50;99.90;;;;;;5033433;28;20481;-82
2023/09/13 08:02:48;;;;;;;2.63;2.40;;;19.50;99.90;;;;;;5033183;28;20447;-82
2023/09/13 08:05:17;;;;;;;2.97;1.87;;;19.60;99.90;;;;;;5033387;28;20570;-82
2023/09/13 08:07:45;;;;;;;3.10;2.03;;;19.60;99.90;;;;;;5033407;28;20559;-83
2023/09/13 08:10:11;;;;;;;4.57;1.97;;;19.60;99.90;;;;;;5033296;28;20446;-83
2023/09/13 08:12:39;;;;;;;4.17;2.90;;;19.60;99.90;;;;;;5033357;28;20449;-82
2023/09/13 08:15:07;;;;;;;2.97;1.60;;;19.70;99.90;;;;;;5033282;28;20469;-83
2023/09/13 08:17:34;;;;;;;3.20;2.00;;;19.60;99.90;;;;;;5033368;28;20431;-83
2023/09/13 08:20:01;;;;;;;3.33;2.37;;;19.60;99.90;;;;;;5032903;28;20475;-83
2023/09/13 08:22:30;;;;;;;3.13;2.47;;;19.50;99.90;;;;;;5033269;28;20550;-82
2023/09/13 08:24:56;;;;;;;2.47;1.93;;;19.60;99.90;;;;;;5033129;28;20474;-83
2023/09/13 08:27:23;;;;;;;3.07;2.73;;;19.60;99.90;;;;;;5032800;28;20478;-83
2023/09/13 08:29:50;;;;;;;2.63;2.43;;;19.60;99.90;;;;;;5033185;28;20446;-83
2023/09/13 08:32:17;;;;;;;3.73;2.23;;;19.60;99.90;;;;;;5033230;28;20816;-82
2023/09/13 08:34:44;;;;;;;3.60;3.30;;;19.60;99.90;;;;;;5033145;28;20442;-83
2023/09/13 08:37:10;;;;;;;2.77;1.97;;;19.60;99.90;;;;;;5033133;28;20550;-81
2023/09/13 08:39:38;;;;;;;3.33;2.53;;;19.60;99.90;;;;;;5033408;28;20498;-83
2023/09/13 08:42:06;;;;;;;4.57;3.20;;;19.70;99.90;;;;;;5033512;28;20777;-82
2023/09/13 08:44:34;;;;;;;3.33;2.63;;;19.60;99.90;;;;;;5032655;28;20978;-82
2023/09/13 08:47:04;;;;;;;3.67;2.50;;;19.60;99.90;;;;;;5033028;28;20446;-82
2023/09/13 08:49:32;;;;;;;4.77;2.70;;;19.60;99.90;;;;;;5032977;28;20533;-82
2023/09/13 08:52:00;;;;;;;2.53;2.30;;;19.60;99.90;;;;;;5032913;28;20443;-82
2023/09/13 08:54:27;;;;;;;3.47;2.83;;;19.60;99.90;;;;;;5032927;28;20454;-82
2023/09/13 08:56:57;;;;;;;5.67;2.63;;;19.70;99.90;;;;;;5032870;28;20462;-83
2023/09/13 08:59:24;;;;;;;2.80;2.23;;;19.70;99.90;;;;;;5032884;28;20522;-82
2023/09/13 09:01:52;;;;;;;3.43;2.10;;;19.70;99.90;;;;;;5032669;28;20435;-82
2023/09/13 09:04:20;;;;;;;3.40;2.33;;;19.70;99.90;;;;;;5032866;28;20451;-83
2023/09/13 09:06:48;;;;;;;2.27;1.90;;;19.70;99.90;;;;;;5032798;28;20463;-82
2023/09/13 09:09:18;;;;;;;2.13;1.63;;;19.70;99.90;;;;;;5032545;28;20438;-82
2023/09/13 09:11:50;;;;;;;2.00;1.70;;;19.60;99.90;;;;;;5032820;28;20450;-83
2023/09/13 09:14:21;;;;;;;3.00;1.63;;;19.60;99.90;;;;;;5032599;28;20411;-83
2023/09/13 09:16:51;;;;;;;2.70;1.70;;;19.50;99.90;;;;;;5032783;28;20475;-84
2023/09/13 09:19:18;;;;;;;3.30;2.13;;;19.50;99.90;;;;;;5032771;28;20477;-84
2023/09/13 09:21:45;;;;;;;2.30;1.70;;;19.50;99.90;;;;;;5033000;28;20932;-82
2023/09/13 09:24:11;;;;;;;4.73;2.20;;;19.50;99.90;;;;;;5036056;28;20457;-82
2023/09/13 09:26:39;;;;;;;1.60;1.50;;;19.60;99.90;;;;;;5035894;28;20485;-82
2023/09/13 09:29:13;;;;;;;4.10;2.40;;;19.70;99.90;;;;;;5036136;28;20459;-82
2023/09/13 09:31:42;;;;;;;2.70;1.80;;;19.80;99.90;;;;;;5036394;28;20533;-82
2023/09/13 09:34:10;;;;;;;1.60;1.20;;;19.80;99.90;;;;;;5036163;28;20446;-82
2023/09/13 09:36:40;;;;;;;2.23;1.67;;;19.80;99.90;;;;;;5036096;28;20462;-82
2023/09/13 09:39:07;;;;;;;4.20;2.00;;;19.90;99.90;;;;;;5036042;28;20450;-82
2023/09/13 09:41:35;;;;;;;1.77;1.13;;;20.00;99.90;;;;;;5035749;28;20809;-82
2023/09/13 09:44:02;;;;;;;1.73;1.63;;;20.00;99.90;;;;;;5036003;28;20443;-82
2023/09/13 09:46:30;;;;;;;2.10;1.30;;;20.10;99.90;;;;;;5035936;28;20520;-82
2023/09/13 09:49:00;;;;;;;1.63;1.50;;;20.10;99.90;;;;;;5035951;28;20446;-82
2023/09/13 09:51:28;;;;;;;2.10;1.87;;;20.10;99.90;;;;;;5035924;28;20442;-82
2023/09/13 09:53:55;;;;;;;4.47;1.47;;;20.10;99.90;;;;;;5035829;28;20442;-82
2023/09/13 09:56:23;;;;;;;1.30;1.20;;;20.20;99.90;;;;;;5035750;28;20466;-82
2023/09/13 09:58:50;;;;;;;4.40;1.47;;;20.20;99.90;;;;;;5035593;28;20971;-82
2023/09/13 10:01:18;;;;;;;2.50;1.33;;;20.10;99.90;;;;;;5035386;28;20998;-82
2023/09/13 10:03:45;;;;;;;1.60;1.07;;;20.10;99.90;;;;;;5035291;28;20494;-82
2023/09/13 10:06:15;;;;;;;2.10;1.70;;;20.10;99.90;;;;;;5035489;28;20466;-83
2023/09/13 10:08:43;;;;;;;2.07;1.30;;;20.00;99.90;;;;;;5035584;28;20446;-84
2023/09/13 10:11:11;;;;;;;2.20;2.00;;;20.00;99.90;;;;;;5035505;28;20446;-83
2023/09/13 10:13:39;;;;;;;1.97;1.60;;;19.80;99.90;;;;;;5035242;28;20443;-83
2023/09/13 10:16:08;;;;;;;1.57;1.27;;;19.70;99.90;;;;;;5035506;28;20462;-84
2023/09/13 10:18:39;;;;;;;2.53;1.83;;;19.60;99.90;;;;;;5035625;28;20441;-85
2023/09/13 10:21:07;;;;;;;1.57;1.47;;;19.50;99.90;;;;;;5035435;28;20471;-84
2023/09/13 10:23:40;;;;;;;1.90;1.40;;;19.40;99.90;;;;;;5035213;28;20485;-85
2023/09/13 10:26:09;;;;;;;3.10;1.60;;;19.30;99.90;;;;;;5035235;28;20482;-85
2023/09/13 10:28:39;;;;;;;3.37;1.60;;;19.20;99.90;;;;;;5035545;28;20931;-85
2023/09/13 10:31:12;;;;;;;2.13;1.60;;;19.10;99.90;;;;;;5035064;28;20940;-84
2023/09/13 10:33:43;;;;;;;3.87;2.33;;;19.00;99.90;;;;;;5033766;28;20443;-84
2023/09/13 10:36:16;;;;;;;6.43;1.70;;;19.00;99.90;;;;;;5035151;28;20462;-84
2023/09/13 10:38:46;;;;;;;1.33;1.23;;;19.00;99.90;;;;;;5035154;28;20442;-83
2023/09/13 10:41:17;;;;;;;2.97;1.70;;;19.00;99.90;;;;;;5034634;28;20470;-83
2023/09/13 10:43:46;;;;;;;2.57;1.60;;;19.10;99.90;;;;;;5035008;28;20437;-83
2023/09/13 10:46:13;;;;;;;2.90;2.13;;;19.10;99.90;;;;;;5034881;28;20467;-83
2023/09/13 10:48:42;;;;;;;4.57;1.70;;;19.20;99.90;;;;;;5034874;28;20446;-83
2023/09/13 10:51:12;;;;;;;2.10;1.90;;;19.20;99.90;;;;;;5034842;28;20439;-83
2023/09/13 10:53:41;;;;;;;3.40;2.03;;;19.20;99.90;;;;;;5034735;28;20797;-83
2023/09/13 10:56:11;;;;;;;2.90;1.90;;;19.30;99.90;;;;;;5034657;28;20466;-83
2023/09/13 10:58:40;;;;;;;2.87;2.10;;;19.30;99.90;;;;;;5034901;28;20486;-83
2023/09/13 11:01:07;;;;;;;5.10;1.80;;;19.40;99.90;;;;;;5034525;28;20490;-83
2023/09/13 11:03:34;;;;;;;2.27;1.77;;;19.40;99.90;;;;;;5034559;28;20423;-83
2023/09/13 11:06:01;;;;;;;2.47;1.97;;;19.40;99.90;;;;;;5034477;28;20462;-83
2023/09/13 11:08:30;;;;;;;3.20;2.60;;;19.50;99.90;;;;;;5034391;28;20447;-83
2023/09/13 11:10:57;;;;;;;1.97;1.37;;;19.40;99.90;;;;;;5034429;28;20447;-83
2023/09/13 11:13:34;;;;;;;1.93;1.20;;;19.50;99.90;;;;;;5034039;28;20438;-83
2023/09/13 11:16:03;;;;;;;3.10;1.97;;;19.50;99.90;;;;;;5034519;28;20470;-83
2023/09/13 11:18:31;;;;;;;1.60;1.50;;;19.50;99.90;;;;;;5034542;28;20450;-83
2023/09/13 11:20:58;;;;;;;2.10;1.47;;;19.60;99.90;;;;;;5033856;28;20500;-82
2023/09/13 11:23:24;;;;;;;1.33;1.00;;;19.50;99.90;;;;;;5034176;28;20447;-82
2023/09/13 11:25:53;;;;;;;1.43;1.33;;;19.60;99.90;;;;;;5033757;28;20478;-82
2023/09/13 11:28:44;;;;;;;2.90;1.73;;;19.70;99.90;;;;;;5033769;28;20426;-82
2023/09/13 11:31:13;;;;;;;1.53;1.40;;;19.80;99.90;;;;;;5034678;28;20434;-82
2023/09/13 11:33:46;;;;;;;1.63;1.30;;;19.90;99.90;;;;;;5033906;28;20451;-82
2023/09/13 11:36:17;;;;;;;1.93;1.43;;;20.10;99.90;;;;;;5033541;28;20470;-83
2023/09/13 11:38:44;;;;;;;2.80;1.53;;;20.20;99.90;;;;;;5033661;28;20415;-82
2023/09/13 11:41:17;;;;;;;2.93;1.77;;;20.30;99.90;;;;;;5033759;28;20492;-82
2023/09/13 11:43:45;;;;;;;2.03;1.87;;;20.40;99.90;;;;;;5033841;28;20427;-83
2023/09/13 11:46:12;;;;;;;3.23;1.70;;;20.50;99.90;;;;;;5033319;28;20521;-82
2023/09/13 11:48:40;;;;;;;7.70;1.67;;;20.60;99.90;;;;;;5033728;28;20446;-82
2023/09/13 11:51:12;;;;;;;3.20;1.67;;;20.60;99.90;;;;;;5033706;28;20446;-82
2023/09/13 11:53:39;;;;;;;2.50;1.97;;;20.60;99.90;;;;;;5033635;28;20492;-82
2023/09/13 11:56:09;;;;;;;2.50;2.30;;;20.80;99.90;;;;;;5033620;28;20473;-83
2023/09/13 11:58:37;;;;;;;2.70;1.57;;;20.80;99.90;;;;;;5033619;28;20430;-82
2023/09/13 12:01:07;;;;;;;3.17;1.93;;;20.80;99.90;;;;;;5033415;28;20482;-82
2023/09/13 12:03:36;;;;;;;2.23;1.60;;;20.80;99.90;;;;;;5033492;28;20446;-82
2023/09/13 12:06:03;;;;;;;1.87;1.73;;;20.90;99.90;;;;;;5033399;28;20465;-82
2023/09/13 12:08:31;;;;;;;2.70;1.53;;;21.00;99.90;;;;;;5033450;28;20442;-82
2023/09/13 12:11:02;;;;;;;1.60;1.33;;;21.10;99.90;;;;;;5033418;28;20474;-83
2023/09/13 12:13:41;;;;;;;3.03;1.60;;;21.10;99.90;;;;;;5033410;28;20427;-82
2023/09/13 12:16:09;;;;;;;2.50;1.77;;;21.30;99.90;;;;;;5033297;28;20481;-83
2023/09/13 12:18:37;;;;;;;1.73;1.40;;;21.40;99.90;;;;;;5033331;28;20450;-82
2023/09/13 12:21:06;;;;;;;2.03;1.50;;;21.50;99.90;;;;;;5032863;28;20487;-83
2023/09/13 12:23:35;;;;;;;2.40;1.30;;;21.50;99.90;;;;;;5033230;28;20454;-83
2023/09/13 12:26:04;;;;;;;1.63;1.30;;;21.60;99.90;;;;;;5032563;28;20870;-83
2023/09/13 12:28:32;;;;;;;1.73;1.40;;;21.60;99.90;;;;;;5033244;28;20450;-83
2023/09/13 12:30:59;;;;;;;1.90;1.37;;;21.50;99.90;;;;;;5033305;28;20445;-82
2023/09/13 12:33:28;;;;;;;3.33;1.43;;;21.60;99.90;;;;;;5033205;28;20454;-82
2023/09/13 12:35:55;;;;;;;1.83;1.30;;;21.60;99.90;;;;;;5033125;28;20470;-82
2023/09/13 12:38:22;;;;;;;1.63;1.20;;;21.60;99.90;;;;;;5032838;28;20450;-82
2023/09/13 12:40:52;;;;;;;1.80;1.53;;;21.60;99.90;;;;;;5032810;28;20474;-82
2023/09/13 12:43:20;;;;;;;2.00;1.63;;;21.70;99.90;;;;;;5033392;28;20435;-82
2023/09/13 12:45:47;;;;;;;2.50;1.50;;;21.50;99.90;;;;;;5033096;28;20517;-83
2023/09/13 12:48:14;;;;;;;1.90;1.80;;;21.50;99.90;;;;;;5032800;28;20441;-83